createdAt,value
2023-04-02T00:02:23.123Z,2.95
2023-04-02T00:05:20.636Z,3.40
2023-04-02T00:07:50.110Z,1.73
2023-04-02T00:10:39.331Z,4.93
2023-04-02T00:13:10.422Z,0.82
2023-04-02T00:15:38.426Z,1.30
2023-04-02T00:18:05.867Z,1.65
2023-04-02T00:20:38.431Z,4.72
2023-04-02T00:23:05.527Z,2.63
2023-04-02T00:25:37.258Z,4.13
2023-04-02T00:28:04.653Z,2.42
2023-04-02T00:30:31.022Z,5.47
2023-04-02T00:32:57.925Z,3.38
2023-04-02T00:35:29.056Z,4.78
2023-04-02T00:37:56.742Z,4.45
2023-04-02T00:40:25.588Z,5.50
2023-04-02T00:42:54.636Z,4.60
2023-04-02T00:45:30.851Z,4.28
2023-04-02T00:48:00.047Z,5.03
2023-04-02T00:50:34.653Z,3.40
2023-04-02T00:53:08.640Z,2.55
2023-04-02T00:55:39.214Z,2.30
2023-04-02T00:58:19.058Z,2.67
2023-04-02T01:00:50.137Z,2.13
2023-04-02T01:03:16.729Z,2.80
2023-04-02T01:05:48.333Z,3.13
2023-04-02T01:08:56.406Z,3.65
2023-04-02T01:11:28.595Z,2.38
2023-04-02T01:14:20.008Z,2.90
2023-04-02T01:17:00.511Z,2.78
2023-04-02T01:19:49.088Z,2.40
2023-04-02T01:22:42.460Z,2.35
2023-04-02T01:25:17.738Z,4.13
2023-04-02T01:28:05.049Z,4.28
2023-04-02T01:30:34.840Z,2.28
2023-04-02T01:33:01.387Z,1.52
2023-04-02T01:35:34.353Z,4.97
2023-04-02T01:38:38.433Z,3.13
2023-04-02T01:41:18.164Z,4.25
2023-04-02T01:44:01.385Z,2.28
2023-04-02T01:46:31.951Z,3.30
2023-04-02T01:49:02.536Z,1.95
2023-04-02T01:51:33.221Z,1.58
2023-04-02T01:54:01.941Z,4.83
2023-04-02T01:56:30.444Z,3.13
2023-04-02T01:58:58.404Z,3.67
2023-04-02T02:01:31.071Z,3.65
2023-04-02T02:03:57.693Z,2.25
2023-04-02T02:06:24.598Z,2.13
2023-04-02T02:09:01.349Z,2.35
2023-04-02T02:11:30.573Z,2.00
2023-04-02T02:13:58.470Z,2.88
2023-04-02T02:16:29.737Z,1.85
2023-04-02T02:19:00.423Z,2.10
2023-04-02T02:21:36.374Z,3.38
2023-04-02T02:24:04.848Z,1.42
2023-04-02T02:26:34.037Z,3.28
2023-04-02T02:29:02.091Z,4.75
2023-04-02T02:31:33.375Z,1.57
2023-04-02T02:34:08.087Z,2.17
2023-04-02T02:36:51.242Z,3.65
2023-04-02T02:39:24.531Z,2.08
2023-04-02T02:42:00.885Z,3.22
2023-04-02T02:44:29.527Z,2.50
2023-04-02T02:47:03.976Z,2.85
2023-04-02T02:49:36.304Z,1.80
2023-04-02T02:52:08.647Z,1.38
2023-04-02T02:54:38.594Z,3.10
2023-04-02T02:57:10.471Z,2.53
2023-04-02T02:59:38.277Z,1.85
2023-04-02T03:02:06.981Z,2.08
2023-04-02T03:04:37.037Z,3.15
2023-04-02T03:07:06.093Z,1.13
2023-04-02T03:10:09.839Z,0.73
2023-04-02T03:12:45.716Z,2.20
2023-04-02T03:15:23.587Z,1.35
2023-04-02T03:18:03.632Z,2.15
2023-04-02T03:20:48.318Z,3.97
2023-04-02T03:23:27.511Z,4.03
2023-04-02T03:26:05.410Z,2.30
2023-04-02T03:28:37.308Z,2.03
2023-04-02T03:31:10.021Z,2.58
2023-04-02T03:33:42.113Z,2.28
2023-04-02T03:36:20.936Z,1.00
2023-04-02T03:38:52.343Z,1.77
2023-04-02T03:41:29.689Z,2.67
2023-04-02T03:44:00.614Z,2.85
2023-04-02T03:46:31.034Z,1.95
2023-04-02T03:49:01.357Z,3.80
2023-04-02T03:51:36.420Z,3.85
2023-04-02T03:54:03.607Z,3.67
2023-04-02T03:56:39.618Z,2.70
2023-04-02T03:59:15.320Z,1.70
2023-04-02T04:02:12.717Z,2.67
2023-04-02T04:04:42.031Z,0.98
2023-04-02T04:07:19.599Z,0.73
2023-04-02T04:09:48.528Z,1.88
2023-04-02T04:12:22.301Z,2.08
2023-04-02T04:14:59.845Z,2.33
2023-04-02T04:17:30.889Z,3.38
2023-04-02T04:20:07.691Z,1.45
2023-04-02T04:22:34.403Z,2.22
2023-04-02T04:25:04.537Z,3.50
2023-04-02T04:27:42.797Z,1.97
2023-04-02T04:30:27.253Z,3.20
2023-04-02T04:33:01.956Z,3.15
2023-04-02T04:35:36.932Z,1.92
2023-04-02T04:38:14.400Z,2.55
2023-04-02T04:40:56.006Z,0.90
2023-04-02T04:43:33.453Z,2.33
2023-04-02T04:46:08.909Z,2.45
2023-04-02T04:48:47.078Z,1.85
2023-04-02T04:51:22.412Z,2.10
2023-04-02T04:53:52.785Z,2.43
2023-04-02T04:56:25.593Z,1.70
2023-04-02T04:59:00.230Z,0.30
2023-04-02T05:01:35.730Z,2.28
2023-04-02T05:04:25.233Z,2.15
2023-04-02T05:07:16.478Z,0.93
2023-04-02T05:09:51.776Z,0.57
2023-04-02T05:12:39.678Z,0.82
2023-04-02T05:15:32.211Z,0.45
2023-04-02T05:18:17.523Z,1.10
2023-04-02T05:20:52.304Z,0.60
2023-04-02T05:23:36.133Z,0.60
2023-04-02T05:26:08.797Z,0.22
2023-04-02T05:28:40.581Z,0.52
2023-04-02T05:31:21.073Z,0.60
2023-04-02T05:33:49.205Z,0.60
2023-04-02T05:36:29.103Z,0.30
2023-04-02T05:38:57.671Z,0.52
2023-04-02T05:41:36.575Z,0.28
2023-04-02T05:44:28.426Z,0.80
2023-04-02T05:47:01.642Z,0.40
2023-04-02T05:49:44.576Z,0.40
2023-04-02T05:52:19.733Z,0.20
2023-04-02T05:54:52.322Z,0.73
2023-04-02T05:57:44.658Z,0.50
2023-04-02T06:00:20.212Z,0.53
2023-04-02T06:03:00.060Z,0.22
2023-04-02T06:05:33.818Z,0.55
2023-04-02T06:08:10.737Z,0.25
2023-04-02T06:11:06.046Z,0.30
2023-04-02T06:13:32.519Z,0.20
2023-04-02T06:15:59.074Z,0.50
2023-04-02T06:18:28.707Z,0.50
2023-04-02T06:20:55.882Z,0.30
2023-04-02T06:23:32.065Z,0.20
2023-04-02T06:26:04.611Z,0.23
2023-04-02T06:28:40.288Z,0.30
2023-04-02T06:31:16.778Z,0.93
2023-04-02T06:33:43.472Z,0.70
2023-04-02T06:36:12.097Z,0.63
2023-04-02T06:38:40.516Z,0.33
2023-04-02T06:41:17.242Z,0.45
2023-04-02T06:43:54.033Z,0.73
2023-04-02T06:46:32.269Z,0.50
2023-04-02T06:49:16.260Z,0.70
2023-04-02T06:51:45.725Z,0.83
2023-04-02T06:54:16.073Z,0.65
2023-04-02T06:56:46.602Z,1.00
2023-04-02T06:59:14.412Z,0.70
2023-04-02T07:01:49.098Z,1.35
2023-04-02T07:04:15.963Z,0.83
2023-04-02T07:06:42.411Z,0.45
2023-04-02T07:09:08.921Z,0.85
2023-04-02T07:11:35.438Z,1.15
2023-04-02T07:14:02.227Z,1.17
2023-04-02T07:16:31.759Z,1.07
2023-04-02T07:19:02.894Z,0.80
2023-04-02T07:21:29.896Z,1.55
2023-04-02T07:23:56.234Z,0.55
2023-04-02T07:26:25.412Z,2.08
2023-04-02T07:28:52.014Z,0.97
2023-04-02T07:31:24.453Z,0.40
2023-04-02T07:33:51.321Z,0.55
2023-04-02T07:36:21.739Z,0.60
2023-04-02T07:38:48.839Z,0.30
2023-04-02T07:41:15.901Z,0.70
2023-04-02T07:43:42.412Z,1.30
2023-04-02T07:46:10.260Z,0.80
2023-04-02T07:48:36.739Z,0.70
2023-04-02T07:51:03.416Z,0.77
2023-04-02T07:53:37.828Z,0.90
2023-04-02T07:56:05.416Z,0.82
2023-04-02T07:58:32.751Z,0.95
2023-04-02T08:01:01.592Z,1.42
2023-04-02T08:03:28.131Z,1.95
2023-04-02T08:05:56.722Z,0.43
2023-04-02T08:08:24.618Z,0.88
2023-04-02T08:10:51.661Z,0.95
2023-04-02T08:13:18.869Z,1.13
2023-04-02T08:15:45.735Z,0.75
2023-04-02T08:18:12.210Z,1.47
2023-04-02T08:20:39.456Z,1.98
2023-04-02T08:23:15.330Z,1.15
2023-04-02T08:25:41.912Z,1.27
2023-04-02T08:28:08.326Z,1.27
2023-04-02T08:30:34.819Z,1.13
2023-04-02T08:33:01.293Z,0.57
2023-04-02T08:35:27.690Z,0.75
2023-04-02T08:37:54.079Z,0.70
2023-04-02T08:40:29.440Z,0.77
2023-04-02T08:43:03.657Z,0.77
2023-04-02T08:45:48.771Z,0.70
2023-04-02T08:48:15.828Z,1.60
2023-04-02T08:50:44.619Z,0.90
2023-04-02T08:53:19.387Z,0.55
2023-04-02T08:55:48.877Z,0.53
2023-04-02T08:58:48.095Z,0.57
2023-04-02T09:01:34.866Z,0.70
2023-04-02T09:04:06.906Z,0.73
2023-04-02T09:06:34.499Z,0.80
2023-04-02T09:09:01.134Z,0.50
2023-04-02T09:11:36.084Z,0.50
2023-04-02T09:14:06.902Z,0.60
2023-04-02T09:16:43.544Z,0.60
2023-04-02T09:19:30.922Z,0.45
2023-04-02T09:22:06.439Z,0.50
2023-04-02T09:24:33.307Z,0.55
2023-04-02T09:27:00.049Z,0.40
2023-04-02T09:29:39.686Z,0.38
2023-04-02T09:32:28.177Z,0.28
2023-04-02T09:35:15.120Z,0.70
2023-04-02T09:38:19.701Z,0.20
2023-04-02T09:40:55.293Z,0.40
2023-04-02T09:43:24.649Z,0.10
2023-04-02T09:46:05.672Z,0.77
2023-04-02T09:48:39.399Z,0.47
2023-04-02T09:51:20.214Z,4.28
2023-04-02T09:53:49.133Z,0.95
2023-04-02T09:56:25.611Z,0.30
2023-04-02T09:59:15.462Z,0.30
2023-04-02T10:01:45.150Z,0.20
2023-04-02T10:04:33.498Z,0.20
2023-04-02T10:07:00.008Z,0.40
2023-04-02T10:09:37.778Z,0.85
2023-04-02T10:12:13.752Z,0.30
2023-04-02T10:14:44.334Z,0.50
2023-04-02T10:17:31.343Z,0.30
2023-04-02T10:20:11.363Z,0.50
2023-04-02T10:22:37.753Z,0.13
2023-04-02T10:25:17.407Z,0.20
2023-04-02T10:27:59.748Z,0.15
2023-04-02T10:30:51.630Z,0.37
2023-04-02T10:33:24.170Z,0.25
2023-04-02T10:36:09.732Z,0.20
2023-04-02T10:38:55.518Z,0.35
2023-04-02T10:41:39.371Z,0.20
2023-04-02T10:44:19.410Z,0.50
2023-04-02T10:47:00.200Z,0.20
2023-04-02T10:49:29.276Z,0.28
2023-04-02T10:51:56.004Z,0.10
2023-04-02T10:54:31.588Z,0.28
2023-04-02T10:57:06.775Z,0.23
2023-04-02T10:59:38.099Z,0.20
2023-04-02T11:02:29.594Z,0.68
2023-04-02T11:05:02.063Z,0.50
2023-04-02T11:07:32.316Z,0.60
2023-04-02T11:10:00.782Z,0.20
2023-04-02T11:12:41.413Z,0.25
2023-04-02T11:15:20.309Z,0.32
2023-04-02T11:17:47.604Z,0.30
2023-04-02T11:20:48.722Z,0.13
2023-04-02T11:23:19.140Z,0.40
2023-04-02T11:25:46.841Z,0.30
2023-04-02T11:28:27.380Z,0.30
2023-04-02T11:30:54.491Z,0.30
2023-04-02T11:33:38.230Z,0.10
2023-04-02T11:36:44.412Z,0.20
2023-04-02T11:39:17.278Z,0.20
2023-04-02T11:41:56.100Z,0.30
2023-04-02T11:44:24.182Z,0.20
2023-04-02T11:46:51.534Z,0.30
2023-04-02T11:49:41.080Z,0.10
2023-04-02T11:52:21.800Z,0.20
2023-04-02T11:54:58.144Z,0.15
2023-04-02T11:57:47.043Z,0.10
2023-04-02T12:00:19.476Z,0.28
2023-04-02T12:03:04.509Z,0.40
2023-04-02T12:05:43.131Z,0.13
2023-04-02T12:08:24.455Z,0.35
2023-04-02T12:10:58.162Z,0.13
2023-04-02T12:13:39.793Z,0.40
2023-04-02T12:16:08.501Z,0.20
2023-04-02T12:18:35.845Z,0.30
2023-04-02T12:21:02.500Z,0.63
2023-04-02T12:23:35.318Z,0.20
2023-04-02T12:26:06.399Z,0.40
2023-04-02T12:28:38.058Z,0.10
2023-04-02T12:31:13.022Z,0.40
2023-04-02T12:33:41.442Z,0.20
2023-04-02T12:36:16.981Z,0.28
2023-04-02T12:38:46.967Z,0.20
2023-04-02T12:41:24.155Z,0.50
2023-04-02T12:44:00.907Z,0.30
2023-04-02T12:46:29.689Z,0.20
2023-04-02T12:49:21.001Z,0.38
2023-04-02T12:51:48.426Z,0.20
2023-04-02T12:54:20.698Z,0.23
2023-04-02T12:56:48.313Z,0.40
2023-04-02T12:59:44.839Z,0.20
2023-04-02T13:02:21.119Z,0.10
2023-04-02T13:04:53.049Z,0.28
2023-04-02T13:07:22.279Z,0.30
2023-04-02T13:09:54.742Z,0.20
2023-04-02T13:12:25.534Z,0.20
2023-04-02T13:14:59.636Z,0.25
2023-04-02T13:17:36.802Z,0.20
2023-04-02T13:20:31.168Z,0.30
2023-04-02T13:22:58.840Z,0.20
2023-04-02T13:25:31.214Z,0.10
2023-04-02T13:27:58.192Z,0.20
2023-04-02T13:30:27.465Z,0.20
2023-04-02T13:32:54.715Z,0.20
2023-04-02T13:35:22.380Z,0.35
2023-04-02T13:37:49.031Z,0.20
2023-04-02T13:40:16.787Z,0.00
2023-04-02T13:42:43.907Z,0.40
2023-04-02T13:45:22.405Z,0.20
2023-04-02T13:47:48.822Z,0.30
2023-04-02T13:50:23.372Z,0.20
2023-04-02T13:52:53.689Z,0.20
2023-04-02T13:55:24.203Z,0.20
2023-04-02T13:57:51.034Z,0.13
2023-04-02T14:00:18.127Z,0.10
2023-04-02T14:02:50.779Z,0.35
2023-04-02T14:05:38.239Z,0.30
2023-04-02T14:08:08.937Z,0.32
2023-04-02T14:11:03.116Z,0.10
2023-04-02T14:13:53.407Z,0.30
2023-04-02T14:16:27.998Z,0.10
2023-04-02T14:18:57.361Z,0.22
2023-04-02T14:21:44.904Z,0.20
2023-04-02T14:24:17.272Z,0.20
2023-04-02T14:27:03.012Z,0.40
2023-04-02T14:29:37.862Z,0.20
2023-04-02T14:32:13.620Z,0.22
2023-04-02T14:34:54.831Z,0.20
2023-04-02T14:38:12.284Z,0.20
2023-04-02T14:40:46.116Z,0.10
2023-04-02T14:43:22.439Z,0.17
2023-04-02T14:45:57.540Z,0.10
2023-04-02T14:48:32.732Z,0.30
2023-04-02T14:51:05.347Z,0.23
2023-04-02T14:53:42.032Z,0.17
2023-04-02T14:56:12.433Z,0.40
2023-04-02T14:58:46.735Z,0.30
2023-04-02T15:01:28.386Z,0.10
2023-04-02T15:04:03.050Z,0.70
2023-04-02T15:06:41.521Z,0.20
2023-04-02T15:09:16.508Z,0.20
2023-04-02T15:11:50.230Z,0.10
2023-04-02T15:14:19.314Z,0.20
2023-04-02T15:16:47.088Z,0.10
2023-04-02T15:19:17.702Z,0.10
2023-04-02T15:22:09.670Z,0.30
2023-04-02T15:25:03.086Z,0.20
2023-04-02T15:27:41.452Z,0.40
2023-04-02T15:30:39.134Z,0.20
2023-04-02T15:33:27.662Z,0.17
2023-04-02T15:36:03.640Z,0.10
2023-04-02T15:38:41.976Z,0.10
2023-04-02T15:41:23.892Z,0.20
2023-04-02T15:44:12.782Z,0.30
2023-04-02T15:46:51.229Z,0.47
2023-04-02T15:49:43.215Z,0.10
2023-04-02T15:52:40.861Z,0.30
2023-04-02T15:55:14.017Z,0.10
2023-04-02T15:58:10.912Z,0.00
2023-04-02T16:01:01.456Z,0.22
2023-04-02T16:03:36.658Z,0.13
2023-04-02T16:06:25.297Z,0.40
2023-04-02T16:09:19.119Z,0.20
2023-04-02T16:11:45.571Z,0.60
2023-04-02T16:14:28.986Z,0.30
2023-04-02T16:17:23.814Z,0.10
2023-04-02T16:19:55.914Z,0.30
2023-04-02T16:22:30.598Z,0.20
2023-04-02T16:25:01.068Z,0.17
2023-04-02T16:27:52.518Z,0.20
2023-04-02T16:30:43.987Z,0.20
2023-04-02T16:33:41.183Z,0.38
2023-04-02T16:36:29.301Z,0.10
2023-04-02T16:39:07.930Z,0.10
2023-04-02T16:42:04.797Z,0.20
2023-04-02T16:44:43.239Z,0.05
2023-04-02T16:47:28.440Z,0.20
2023-04-02T16:50:01.130Z,0.35
2023-04-02T16:52:45.615Z,0.30
2023-04-02T16:55:43.275Z,0.10
2023-04-02T16:58:28.478Z,0.10
2023-04-02T17:01:18.116Z,0.20
2023-04-02T17:03:50.577Z,0.25
2023-04-02T17:06:26.459Z,0.20
2023-04-02T17:09:01.887Z,0.20
2023-04-02T17:11:39.947Z,0.20
2023-04-02T17:14:29.794Z,1.15
2023-04-02T17:17:01.959Z,0.30
2023-04-02T17:19:29.622Z,0.20
2023-04-02T17:22:00.916Z,0.30
2023-04-02T17:24:38.910Z,0.40
2023-04-02T17:27:13.786Z,0.20
2023-04-02T17:29:44.021Z,0.20
2023-04-02T17:32:18.181Z,0.20
2023-04-02T17:34:44.566Z,0.17
2023-04-02T17:37:35.842Z,0.10
2023-04-02T17:40:39.690Z,0.10
2023-04-02T17:43:18.989Z,0.22
2023-04-02T17:45:54.597Z,0.10
2023-04-02T17:48:41.181Z,0.17
2023-04-02T17:51:31.681Z,0.10
2023-04-02T17:54:27.688Z,0.22
2023-04-02T17:57:31.721Z,0.30
2023-04-02T18:00:16.115Z,0.43
2023-04-02T18:02:45.672Z,0.32
2023-04-02T18:05:12.019Z,0.25
2023-04-02T18:08:02.936Z,0.50
2023-04-02T18:10:47.857Z,0.25
2023-04-02T18:13:45.313Z,0.10
2023-04-02T18:16:33.442Z,0.30
2023-04-02T18:19:37.032Z,0.20
2023-04-02T18:22:25.742Z,0.20
2023-04-02T18:25:15.019Z,0.30
2023-04-02T18:28:26.151Z,0.20
2023-04-02T18:31:08.023Z,0.20
2023-04-02T18:34:20.070Z,0.20
2023-04-02T18:37:13.617Z,0.10
2023-04-02T18:40:30.646Z,0.40
2023-04-02T18:43:29.203Z,0.50
2023-04-02T18:46:23.892Z,1.90
2023-04-02T18:49:19.831Z,1.20
2023-04-02T18:51:49.191Z,0.50
2023-04-02T18:54:39.074Z,2.50
2023-04-02T18:57:23.981Z,0.57
2023-04-02T19:00:29.510Z,0.90
2023-04-02T19:03:11.442Z,0.85
2023-04-02T19:05:54.661Z,0.65
2023-04-02T19:08:28.602Z,0.40
2023-04-02T19:11:01.990Z,0.60
2023-04-02T19:13:28.564Z,0.30
2023-04-02T19:16:25.396Z,0.22
2023-04-02T19:19:15.661Z,0.55
2023-04-02T19:21:51.548Z,0.30
2023-04-02T19:24:27.286Z,0.30
2023-04-02T19:26:59.196Z,0.30
2023-04-02T19:30:06.661Z,0.38
2023-04-02T19:32:48.806Z,0.50
2023-04-02T19:35:31.967Z,0.40
2023-04-02T19:38:31.007Z,0.35
2023-04-02T19:40:57.452Z,0.30
2023-04-02T19:43:23.929Z,0.40
2023-04-02T19:45:50.784Z,0.20
2023-04-02T19:48:21.610Z,0.30
2023-04-02T19:50:49.132Z,0.30
2023-04-02T19:53:16.154Z,0.20
2023-04-02T19:55:43.818Z,0.35
2023-04-02T19:58:30.999Z,0.65
2023-04-02T20:00:58.058Z,0.68
2023-04-02T20:03:24.678Z,0.38
2023-04-02T20:05:51.240Z,0.60
2023-04-02T20:08:17.791Z,0.60
2023-04-02T20:10:45.250Z,0.40
2023-04-02T20:13:11.960Z,0.33
2023-04-02T20:15:39.720Z,0.20
2023-04-02T20:18:06.461Z,0.28
2023-04-02T20:20:32.940Z,0.22
2023-04-02T20:22:59.520Z,0.20
2023-04-02T20:25:26.031Z,0.13
2023-04-02T20:27:52.653Z,0.15
2023-04-02T20:30:19.168Z,0.03
2023-04-02T20:32:45.829Z,0.50
2023-04-02T20:35:12.349Z,0.20
2023-04-02T20:37:40.849Z,0.20
2023-04-02T20:40:08.537Z,0.20
2023-04-02T20:42:34.926Z,0.20
2023-04-02T20:45:01.318Z,0.20
2023-04-02T20:47:27.768Z,0.20
2023-04-02T20:49:54.244Z,0.35
2023-04-02T20:52:21.927Z,0.95
2023-04-02T20:54:49.334Z,0.20
2023-04-02T20:57:15.914Z,0.32
2023-04-02T20:59:42.295Z,0.73
2023-04-02T21:02:11.546Z,0.25
2023-04-02T21:04:37.966Z,1.30
2023-04-02T21:07:04.460Z,0.30
2023-04-02T21:09:30.821Z,0.20
2023-04-02T21:11:57.197Z,0.20
2023-04-02T21:14:24.028Z,0.20
2023-04-02T21:16:50.643Z,0.10
2023-04-02T21:19:17.024Z,0.10
2023-04-02T21:21:44.855Z,0.08
2023-04-02T21:24:11.493Z,0.35
2023-04-02T21:26:40.500Z,0.20
2023-04-02T21:29:07.252Z,0.20
2023-04-02T21:31:37.135Z,0.10
2023-04-02T21:34:04.901Z,0.20
2023-04-02T21:36:36.837Z,0.15
2023-04-02T21:39:06.942Z,0.17
2023-04-02T21:41:41.875Z,0.10
2023-04-02T21:44:10.216Z,0.03
2023-04-02T21:46:39.097Z,0.10
2023-04-02T21:49:08.115Z,0.17
2023-04-02T21:51:36.461Z,0.20
2023-04-02T21:54:03.394Z,0.00
2023-04-02T21:56:35.498Z,0.10
2023-04-02T21:59:02.747Z,0.38
2023-04-02T22:01:36.066Z,0.10
2023-04-02T22:04:05.625Z,0.20
2023-04-02T22:06:36.317Z,0.20
2023-04-02T22:09:06.382Z,0.10
2023-04-02T22:11:38.817Z,0.10
2023-04-02T22:14:05.903Z,0.13
2023-04-02T22:16:34.629Z,0.10
2023-04-02T22:19:04.444Z,0.10
2023-04-02T22:21:31.763Z,0.08
2023-04-02T22:24:04.235Z,0.20
2023-04-02T22:26:32.519Z,0.10
2023-04-02T22:28:59.916Z,0.10
2023-04-02T22:31:29.562Z,0.13
2023-04-02T22:33:57.760Z,0.10
2023-04-02T22:36:25.760Z,0.00
2023-04-02T22:38:52.494Z,0.08
2023-04-02T22:41:26.351Z,0.20
2023-04-02T22:43:53.833Z,0.20
2023-04-02T22:46:20.878Z,0.10
2023-04-02T22:48:48.830Z,0.10
2023-04-02T22:51:17.015Z,0.20
2023-04-02T22:53:43.685Z,0.10
2023-04-02T22:56:16.866Z,0.20
2023-04-02T22:58:43.417Z,0.10
2023-04-02T23:01:15.358Z,0.55
2023-04-02T23:03:41.862Z,0.10
2023-04-02T23:06:11.578Z,0.10
2023-04-02T23:08:39.399Z,0.10
2023-04-02T23:11:11.826Z,0.10
2023-04-02T23:13:39.545Z,0.20
2023-04-02T23:16:08.672Z,0.10
2023-04-02T23:18:35.791Z,0.10
2023-04-02T23:21:02.748Z,0.10
2023-04-02T23:23:29.411Z,0.10
2023-04-02T23:26:08.439Z,0.10
2023-04-02T23:28:35.966Z,0.00
2023-04-02T23:31:04.348Z,0.10
2023-04-02T23:33:30.902Z,0.10
2023-04-02T23:35:58.320Z,0.10
2023-04-02T23:38:25.998Z,0.10
2023-04-02T23:40:53.348Z,0.10
2023-04-02T23:43:19.712Z,0.20
2023-04-02T23:45:50.424Z,0.10
2023-04-02T23:48:17.589Z,0.10
2023-04-02T23:50:45.359Z,0.10
2023-04-02T23:53:13.070Z,0.13
2023-04-02T23:55:40.459Z,0.10
2023-04-02T23:58:07.037Z,0.10
